createdAt,value
2023-05-06T00:00:17.399Z,5.43
2023-05-06T00:02:45.935Z,4.47
2023-05-06T00:05:14.940Z,4.72
2023-05-06T00:07:43.117Z,5.45
2023-05-06T00:10:13.085Z,5.68
2023-05-06T00:12:42.880Z,6.18
2023-05-06T00:15:12.164Z,3.20
2023-05-06T00:17:40.653Z,4.90
2023-05-06T00:20:10.835Z,6.03
2023-05-06T00:22:39.087Z,3.45
2023-05-06T00:25:08.123Z,4.80
2023-05-06T00:27:38.792Z,8.00
2023-05-06T00:30:08.337Z,6.38
2023-05-06T00:32:36.577Z,5.10
2023-05-06T00:35:05.360Z,7.07
2023-05-06T00:37:33.836Z,7.22
2023-05-06T00:40:03.660Z,4.90
2023-05-06T00:42:32.029Z,6.45
2023-05-06T00:45:01.774Z,4.78
2023-05-06T00:47:30.060Z,5.05
2023-05-06T00:49:58.295Z,4.38
2023-05-06T00:52:28.814Z,5.03
2023-05-06T00:54:57.453Z,6.80
2023-05-06T00:57:25.974Z,10.13
2023-05-06T00:59:55.109Z,4.05
2023-05-06T01:02:30.610Z,7.15
2023-05-06T01:05:07.331Z,3.65
2023-05-06T01:07:46.228Z,5.22
2023-05-06T01:10:20.000Z,6.43
2023-05-06T01:12:55.313Z,4.43
2023-05-06T01:15:29.947Z,5.72
2023-05-06T01:18:02.069Z,5.10
2023-05-06T01:20:32.122Z,3.97
2023-05-06T01:23:03.321Z,3.80
2023-05-06T01:25:33.869Z,4.03
2023-05-06T01:28:02.116Z,6.03
2023-05-06T01:30:34.563Z,5.70
2023-05-06T01:33:16.735Z,6.07
2023-05-06T01:35:54.679Z,5.22
2023-05-06T01:38:30.837Z,5.20
2023-05-06T01:41:02.761Z,5.65
2023-05-06T01:43:42.953Z,4.97
2023-05-06T01:46:14.613Z,3.35
2023-05-06T01:48:44.049Z,4.40
2023-05-06T01:51:12.257Z,3.70
2023-05-06T01:53:40.443Z,4.53
2023-05-06T01:56:10.006Z,3.80
2023-05-06T01:58:39.387Z,4.78
2023-05-06T02:01:07.528Z,4.68
2023-05-06T02:03:37.337Z,4.88
2023-05-06T02:06:06.073Z,3.95
2023-05-06T02:08:38.107Z,4.47
2023-05-06T02:11:06.424Z,5.00
2023-05-06T02:13:36.960Z,4.20
2023-05-06T02:16:06.510Z,5.63
2023-05-06T02:18:34.710Z,4.30
2023-05-06T02:21:03.131Z,4.55
2023-05-06T02:23:31.366Z,3.97
2023-05-06T02:25:59.989Z,7.18
2023-05-06T02:28:28.203Z,6.50
2023-05-06T02:30:58.123Z,6.55
2023-05-06T02:33:26.702Z,7.75
2023-05-06T02:35:54.865Z,4.80
2023-05-06T02:38:23.472Z,3.35
2023-05-06T02:40:51.660Z,4.18
2023-05-06T02:43:19.897Z,6.30
2023-05-06T02:45:48.200Z,10.48
2023-05-06T02:48:17.822Z,3.20
2023-05-06T02:50:46.117Z,7.82
2023-05-06T02:53:14.387Z,3.05
2023-05-06T02:55:43.613Z,10.65
2023-05-06T02:58:11.756Z,3.55
2023-05-06T03:00:40.014Z,4.78
2023-05-06T03:03:08.415Z,3.10
2023-05-06T03:05:38.086Z,3.85
2023-05-06T03:08:06.826Z,4.95
2023-05-06T03:10:36.545Z,3.40
2023-05-06T03:13:05.061Z,5.38
2023-05-06T03:15:33.273Z,5.18
2023-05-06T03:18:01.501Z,4.28
2023-05-06T03:20:30.659Z,3.95
2023-05-06T03:23:02.266Z,5.43
2023-05-06T03:25:31.317Z,6.65
2023-05-06T03:27:59.551Z,4.70
2023-05-06T03:30:29.332Z,4.18
2023-05-06T03:33:02.306Z,4.70
2023-05-06T03:35:33.034Z,5.75
2023-05-06T03:38:03.951Z,4.95
2023-05-06T03:40:39.819Z,3.72
2023-05-06T03:43:08.450Z,4.32
2023-05-06T03:45:37.910Z,4.63
2023-05-06T03:48:07.337Z,3.80
2023-05-06T03:50:39.370Z,8.88
2023-05-06T03:53:09.105Z,4.97
2023-05-06T03:55:40.390Z,3.85
2023-05-06T03:58:08.640Z,3.50
2023-05-06T04:00:37.787Z,5.65
2023-05-06T04:03:06.008Z,4.10
2023-05-06T04:05:42.400Z,4.47
2023-05-06T04:08:14.184Z,4.35
2023-05-06T04:10:42.485Z,4.80
2023-05-06T04:13:19.609Z,9.25
2023-05-06T04:15:48.040Z,4.75
2023-05-06T04:18:21.165Z,4.35
2023-05-06T04:20:58.468Z,2.30
2023-05-06T04:23:28.500Z,4.00
2023-05-06T04:25:59.291Z,5.80
2023-05-06T04:28:28.907Z,3.17
2023-05-06T04:30:57.383Z,3.30
2023-05-06T04:33:33.277Z,5.95
2023-05-06T04:36:03.577Z,2.83
2023-05-06T04:38:37.338Z,4.53
2023-05-06T04:41:06.477Z,3.97
2023-05-06T04:43:34.709Z,6.78
2023-05-06T04:46:11.674Z,5.32
2023-05-06T04:48:42.830Z,4.35
2023-05-06T04:51:14.072Z,4.55
2023-05-06T04:53:43.840Z,5.47
2023-05-06T04:56:12.068Z,5.05
2023-05-06T04:58:40.793Z,4.35
2023-05-06T05:01:10.499Z,6.82
2023-05-06T05:03:38.899Z,3.85
2023-05-06T05:06:08.917Z,5.45
2023-05-06T05:08:37.305Z,3.53
2023-05-06T05:11:08.725Z,6.53
2023-05-06T05:13:36.966Z,3.40
2023-05-06T05:16:07.532Z,4.03
2023-05-06T05:18:39.095Z,5.22
2023-05-06T05:21:14.751Z,3.38
2023-05-06T05:23:42.948Z,4.32
2023-05-06T05:26:12.469Z,4.20
2023-05-06T05:28:42.083Z,4.18
2023-05-06T05:31:10.594Z,2.95
2023-05-06T05:33:40.260Z,5.18
2023-05-06T05:36:15.266Z,4.57
2023-05-06T05:38:46.654Z,4.22
2023-05-06T05:41:17.811Z,4.88
2023-05-06T05:43:46.865Z,7.18
2023-05-06T05:46:16.814Z,8.13
2023-05-06T05:48:46.640Z,5.57
2023-05-06T05:51:15.498Z,3.60
2023-05-06T05:53:44.335Z,4.97
2023-05-06T05:56:13.584Z,4.85
2023-05-06T05:58:43.812Z,6.30
2023-05-06T06:01:12.175Z,4.90
2023-05-06T06:03:40.927Z,4.60
2023-05-06T06:06:09.747Z,4.50
2023-05-06T06:08:38.618Z,4.07
2023-05-06T06:11:07.817Z,4.55
2023-05-06T06:13:40.905Z,2.72
2023-05-06T06:16:11.788Z,4.68
2023-05-06T06:18:40.096Z,8.00
2023-05-06T06:21:08.341Z,5.75
2023-05-06T06:23:37.286Z,4.10
2023-05-06T06:26:06.791Z,6.28
2023-05-06T06:28:35.237Z,5.55
2023-05-06T06:31:03.434Z,5.10
2023-05-06T06:33:33.056Z,7.07
2023-05-06T06:36:01.261Z,4.57
2023-05-06T06:38:29.505Z,4.63
2023-05-06T06:40:57.651Z,4.95
2023-05-06T06:43:25.889Z,3.72
2023-05-06T06:46:00.935Z,8.00
2023-05-06T06:48:29.316Z,3.40
2023-05-06T06:50:58.868Z,3.85
2023-05-06T06:53:27.075Z,3.80
2023-05-06T06:55:55.261Z,4.90
2023-05-06T06:58:23.531Z,7.20
2023-05-06T07:00:51.731Z,3.28
2023-05-06T07:03:20.377Z,7.32
2023-05-06T07:05:51.304Z,7.10
2023-05-06T07:08:22.312Z,4.97
2023-05-06T07:10:50.528Z,5.57
2023-05-06T07:13:20.587Z,5.63
2023-05-06T07:15:48.831Z,4.28
2023-05-06T07:18:17.445Z,3.88
2023-05-06T07:20:45.822Z,7.80
2023-05-06T07:23:13.967Z,4.70
2023-05-06T07:25:43.574Z,6.95
2023-05-06T07:28:11.890Z,4.60
2023-05-06T07:30:40.137Z,9.00
2023-05-06T07:33:08.344Z,3.92
2023-05-06T07:35:37.487Z,3.13
2023-05-06T07:38:05.649Z,4.97
2023-05-06T07:40:34.003Z,6.28
2023-05-06T07:43:03.951Z,5.63
2023-05-06T07:45:32.156Z,4.60
2023-05-06T07:48:00.579Z,4.00
2023-05-06T07:50:28.769Z,5.40
2023-05-06T07:52:56.993Z,7.13
2023-05-06T07:55:25.172Z,4.80
2023-05-06T07:57:53.342Z,7.35
2023-05-06T08:00:22.944Z,6.07
2023-05-06T08:02:51.182Z,8.20
2023-05-06T08:05:19.496Z,8.05
2023-05-06T08:07:47.807Z,9.57
2023-05-06T08:10:16.098Z,2.83
2023-05-06T08:12:44.307Z,5.32
2023-05-06T08:15:13.225Z,4.78
2023-05-06T08:17:42.910Z,5.97
2023-05-06T08:20:12.032Z,4.65
2023-05-06T08:22:40.489Z,5.72
2023-05-06T08:25:09.669Z,5.47
2023-05-06T08:27:37.924Z,8.18
2023-05-06T08:30:06.963Z,5.63
2023-05-06T08:32:35.548Z,5.03
2023-05-06T08:35:05.726Z,4.82
2023-05-06T08:37:34.270Z,4.43
2023-05-06T08:40:02.551Z,8.75
2023-05-06T08:42:31.838Z,9.48
2023-05-06T08:45:00.258Z,4.60
2023-05-06T08:47:28.631Z,7.53
2023-05-06T08:49:57.158Z,4.22
2023-05-06T08:52:27.199Z,5.60
2023-05-06T08:55:01.134Z,5.18
2023-05-06T08:57:31.632Z,3.55
2023-05-06T08:59:59.969Z,4.82
2023-05-06T09:02:29.075Z,5.45
2023-05-06T09:04:57.460Z,6.60
2023-05-06T09:07:27.069Z,6.40
2023-05-06T09:09:55.412Z,4.85
2023-05-06T09:12:25.152Z,14.60
2023-05-06T09:14:54.449Z,4.35
2023-05-06T09:17:28.440Z,6.30
2023-05-06T09:19:57.962Z,8.40
2023-05-06T09:22:28.774Z,9.85
2023-05-06T09:24:58.072Z,6.53
2023-05-06T09:27:28.022Z,8.40
2023-05-06T09:30:04.906Z,4.78
2023-05-06T09:32:36.725Z,6.72
2023-05-06T09:35:07.356Z,4.72
2023-05-06T09:37:36.991Z,6.15
2023-05-06T09:40:05.992Z,4.70
2023-05-06T09:42:37.435Z,5.88
2023-05-06T09:45:10.186Z,4.70
2023-05-06T09:47:38.875Z,5.43
2023-05-06T09:50:10.016Z,4.93
2023-05-06T09:52:39.518Z,7.60
2023-05-06T09:55:08.507Z,4.65
2023-05-06T09:57:38.121Z,8.15
2023-05-06T10:00:09.112Z,6.18
2023-05-06T10:02:43.865Z,6.93
2023-05-06T10:05:14.023Z,6.85
2023-05-06T10:07:44.411Z,8.13
2023-05-06T10:10:13.450Z,7.40
2023-05-06T10:12:41.783Z,5.70
2023-05-06T10:15:11.002Z,4.65
2023-05-06T10:17:42.447Z,6.53
2023-05-06T10:20:15.126Z,5.63
2023-05-06T10:22:53.368Z,6.68
2023-05-06T10:25:28.871Z,11.38
2023-05-06T10:27:57.052Z,6.10
2023-05-06T10:30:27.628Z,8.30
2023-05-06T10:32:59.843Z,7.28
2023-05-06T10:35:39.507Z,10.20
2023-05-06T10:38:16.240Z,5.80
2023-05-06T10:40:44.994Z,7.90
2023-05-06T10:43:26.979Z,6.95
2023-05-06T10:46:10.795Z,6.70
2023-05-06T10:48:40.490Z,8.73
2023-05-06T10:51:28.388Z,8.30
2023-05-06T10:54:08.850Z,7.28
2023-05-06T10:56:39.147Z,9.77
2023-05-06T10:59:09.367Z,8.18
2023-05-06T11:01:38.264Z,8.63
2023-05-06T11:04:30.477Z,7.10
2023-05-06T11:07:08.987Z,7.97
2023-05-06T11:09:56.245Z,7.88
2023-05-06T11:12:49.866Z,8.70
2023-05-06T11:15:24.905Z,11.02
2023-05-06T11:17:54.432Z,12.68
2023-05-06T11:20:24.459Z,10.88
2023-05-06T11:22:53.326Z,10.65
2023-05-06T11:25:42.212Z,11.40
2023-05-06T11:28:12.232Z,14.90
2023-05-06T11:30:42.651Z,10.30
2023-05-06T11:33:18.435Z,7.50
2023-05-06T11:35:46.867Z,11.95
2023-05-06T11:38:15.091Z,7.90
2023-05-06T11:40:44.637Z,11.20
2023-05-06T11:43:13.972Z,13.73
2023-05-06T11:45:43.513Z,9.73
2023-05-06T11:48:13.282Z,8.77
2023-05-06T11:50:47.113Z,9.23
2023-05-06T11:53:16.769Z,9.52
2023-05-06T11:55:52.554Z,10.57
2023-05-06T11:58:25.256Z,19.13
2023-05-06T12:00:55.801Z,20.15
2023-05-06T12:03:25.206Z,13.57
2023-05-06T12:05:54.161Z,9.18
2023-05-06T12:08:27.812Z,10.73
2023-05-06T12:11:00.763Z,10.95
2023-05-06T12:13:29.423Z,8.95
2023-05-06T12:16:00.132Z,7.80
2023-05-06T12:18:29.106Z,8.00
2023-05-06T12:20:57.929Z,10.13
2023-05-06T12:23:26.082Z,9.02
2023-05-06T12:26:03.901Z,6.97
2023-05-06T12:28:33.461Z,7.95
2023-05-06T12:31:02.367Z,9.77
2023-05-06T12:33:46.100Z,7.03
2023-05-06T12:36:14.507Z,11.52
2023-05-06T12:38:52.458Z,10.68
2023-05-06T12:41:22.376Z,14.85
2023-05-06T12:43:52.333Z,8.55
2023-05-06T12:46:20.688Z,9.40
2023-05-06T12:49:03.649Z,9.98
2023-05-06T12:51:32.296Z,11.18
2023-05-06T12:54:00.644Z,9.18
2023-05-06T12:56:30.300Z,8.02
2023-05-06T12:59:02.402Z,11.20
2023-05-06T13:01:31.442Z,10.52
2023-05-06T13:03:59.733Z,19.35
2023-05-06T13:06:27.870Z,10.70
2023-05-06T13:08:56.000Z,9.05
2023-05-06T13:11:27.926Z,11.98
2023-05-06T13:13:57.427Z,11.60
2023-05-06T13:16:25.900Z,9.80
2023-05-06T13:18:54.059Z,14.50
2023-05-06T13:21:22.224Z,20.58
2023-05-06T13:23:50.533Z,9.32
2023-05-06T13:26:18.726Z,8.10
2023-05-06T13:28:47.351Z,9.23
2023-05-06T13:31:16.903Z,9.88
2023-05-06T13:33:45.118Z,8.82
2023-05-06T13:36:13.292Z,11.10
2023-05-06T13:38:41.475Z,9.80
2023-05-06T13:41:12.757Z,9.77
2023-05-06T13:43:40.889Z,13.23
2023-05-06T13:46:09.883Z,9.68
2023-05-06T13:48:39.504Z,11.60
2023-05-06T13:51:07.679Z,9.85
2023-05-06T13:53:36.620Z,12.05
2023-05-06T13:56:05.281Z,13.48
2023-05-06T13:58:33.446Z,12.98
2023-05-06T14:01:01.804Z,11.50
2023-05-06T14:03:30.269Z,12.13
2023-05-06T14:05:59.943Z,11.35
2023-05-06T14:08:28.384Z,11.88
2023-05-06T14:10:56.557Z,12.65
2023-05-06T14:13:32.305Z,11.60
2023-05-06T14:16:01.132Z,9.27
2023-05-06T14:18:29.872Z,10.38
2023-05-06T14:20:59.397Z,12.45
2023-05-06T14:23:27.709Z,12.13
2023-05-06T14:25:56.830Z,13.75
2023-05-06T14:28:25.037Z,14.55
2023-05-06T14:30:54.099Z,17.33
2023-05-06T14:33:23.383Z,15.40
2023-05-06T14:35:52.787Z,15.85
2023-05-06T14:38:22.332Z,11.70
2023-05-06T14:40:51.484Z,11.82
2023-05-06T14:43:19.700Z,10.55
2023-05-06T14:45:47.947Z,9.35
2023-05-06T14:48:16.606Z,9.98
2023-05-06T14:50:44.833Z,9.90
2023-05-06T14:53:12.985Z,13.30
2023-05-06T14:55:42.968Z,10.52
2023-05-06T14:58:11.151Z,13.00
2023-05-06T15:00:39.415Z,10.80
2023-05-06T15:03:07.614Z,11.25
2023-05-06T15:05:37.874Z,17.45
2023-05-06T15:08:07.286Z,14.43
2023-05-06T15:10:35.445Z,18.38
2023-05-06T15:13:05.066Z,19.27
2023-05-06T15:15:33.269Z,16.98
2023-05-06T15:18:01.499Z,21.33
2023-05-06T15:20:30.091Z,18.60
2023-05-06T15:22:58.263Z,21.75
2023-05-06T15:25:34.950Z,18.20
2023-05-06T15:28:06.252Z,22.48
2023-05-06T15:30:34.438Z,18.17
2023-05-06T15:33:04.085Z,22.88
2023-05-06T15:35:32.675Z,25.17
2023-05-06T15:38:00.850Z,19.48
2023-05-06T15:40:29.283Z,22.55
2023-05-06T15:42:57.633Z,19.65
2023-05-06T15:45:27.181Z,22.77
2023-05-06T15:47:56.198Z,19.17
2023-05-06T15:50:32.522Z,18.55
2023-05-06T15:53:02.104Z,20.23
2023-05-06T15:55:35.073Z,21.05
2023-05-06T15:58:09.550Z,20.98
2023-05-06T16:00:40.161Z,27.83
2023-05-06T16:03:11.705Z,22.45
2023-05-06T16:05:40.878Z,23.83
2023-05-06T16:08:09.072Z,18.67
2023-05-06T16:10:37.221Z,16.52
2023-05-06T16:13:05.478Z,18.38
2023-05-06T16:15:35.296Z,23.23
2023-05-06T16:18:07.449Z,19.23
2023-05-06T16:20:35.645Z,19.40
2023-05-06T16:23:05.637Z,19.08
2023-05-06T16:25:34.541Z,20.45
2023-05-06T16:28:02.770Z,24.60
2023-05-06T16:30:31.132Z,22.17
2023-05-06T16:32:59.408Z,26.98
2023-05-06T16:35:29.497Z,23.63
2023-05-06T16:37:58.198Z,26.92
2023-05-06T16:40:50.956Z,20.80
2023-05-06T16:43:19.587Z,28.83
2023-05-06T16:45:48.200Z,31.40
2023-05-06T16:48:17.090Z,29.10
2023-05-06T16:50:47.096Z,32.63
2023-05-06T16:53:18.403Z,18.63
2023-05-06T16:55:49.937Z,26.38
2023-05-06T16:58:18.237Z,30.70
2023-05-06T17:00:46.551Z,33.35
2023-05-06T17:03:14.846Z,26.75
2023-05-06T17:05:43.161Z,22.50
2023-05-06T17:08:12.703Z,24.17
2023-05-06T17:10:40.858Z,32.03
2023-05-06T17:13:09.393Z,22.42
2023-05-06T17:15:37.555Z,27.58
2023-05-06T17:18:05.873Z,28.38
2023-05-06T17:20:44.302Z,21.25
2023-05-06T17:23:23.585Z,23.75
2023-05-06T17:25:52.268Z,22.05
2023-05-06T17:28:20.548Z,21.98
2023-05-06T17:30:48.994Z,22.70
2023-05-06T17:33:17.210Z,19.58
2023-05-06T17:35:45.953Z,23.40
2023-05-06T17:38:16.722Z,19.58
2023-05-06T17:40:46.361Z,17.88
2023-05-06T17:43:14.746Z,19.75
2023-05-06T17:45:43.006Z,20.17
2023-05-06T17:48:11.322Z,23.40
2023-05-06T17:50:39.551Z,19.00
2023-05-06T17:53:07.766Z,17.63
2023-05-06T17:55:35.910Z,14.73
2023-05-06T17:58:05.551Z,17.85
2023-05-06T18:00:33.726Z,24.40
2023-05-06T18:03:04.294Z,18.48
2023-05-06T18:05:32.527Z,21.50
2023-05-06T18:08:00.675Z,19.70
2023-05-06T18:10:30.125Z,14.73
2023-05-06T18:12:58.404Z,19.95
2023-05-06T18:15:28.255Z,17.60
2023-05-06T18:17:56.511Z,13.82
2023-05-06T18:20:30.360Z,17.73
2023-05-06T18:22:59.746Z,23.33
2023-05-06T18:25:27.940Z,22.73
2023-05-06T18:27:56.170Z,20.35
2023-05-06T18:30:27.297Z,25.95
2023-05-06T18:32:57.081Z,20.38
2023-05-06T18:35:25.311Z,18.17
2023-05-06T18:37:53.501Z,19.38
2023-05-06T18:40:21.769Z,18.20
2023-05-06T18:42:51.265Z,15.85
2023-05-06T18:45:19.553Z,20.17
2023-05-06T18:47:47.722Z,25.45
2023-05-06T18:50:17.325Z,22.95
2023-05-06T18:52:45.516Z,30.63
2023-05-06T18:55:13.807Z,24.70
2023-05-06T18:57:42.117Z,26.40
2023-05-06T19:00:13.564Z,26.48
2023-05-06T19:02:41.908Z,28.27
2023-05-06T19:05:11.730Z,24.90
2023-05-06T19:07:41.601Z,31.83
2023-05-06T19:10:13.837Z,25.00
2023-05-06T19:12:42.617Z,32.53
2023-05-06T19:15:13.955Z,25.20
2023-05-06T19:17:42.411Z,33.30
2023-05-06T19:20:11.526Z,35.53
2023-05-06T19:22:41.092Z,35.08
2023-05-06T19:25:12.903Z,29.77
2023-05-06T19:27:41.424Z,34.08
2023-05-06T19:30:11.031Z,31.60
2023-05-06T19:32:40.329Z,30.95
2023-05-06T19:35:09.706Z,30.63
2023-05-06T19:37:38.379Z,35.40
2023-05-06T19:40:09.388Z,31.77
2023-05-06T19:42:37.581Z,34.97
2023-05-06T19:45:09.208Z,31.25
2023-05-06T19:47:37.850Z,41.17
2023-05-06T19:50:09.933Z,41.95
2023-05-06T19:52:38.299Z,35.40
2023-05-06T19:55:09.614Z,39.35
2023-05-06T19:57:38.307Z,33.65
2023-05-06T20:00:10.265Z,37.42
2023-05-06T20:02:38.879Z,27.13
2023-05-06T20:05:07.802Z,31.25
2023-05-06T20:07:38.380Z,38.88
2023-05-06T20:10:09.921Z,32.88
2023-05-06T20:12:38.302Z,36.70
2023-05-06T20:15:07.690Z,37.80
2023-05-06T20:17:35.974Z,45.33
2023-05-06T20:20:09.482Z,50.55
2023-05-06T20:22:38.163Z,49.28
2023-05-06T20:25:13.006Z,39.78
2023-05-06T20:27:41.396Z,32.85
2023-05-06T20:30:11.339Z,34.50
2023-05-06T20:32:41.061Z,34.30
2023-05-06T20:35:10.129Z,30.70
2023-05-06T20:37:38.673Z,33.45
2023-05-06T20:40:09.611Z,25.52
2023-05-06T20:42:39.186Z,31.83
2023-05-06T20:45:09.155Z,33.88
2023-05-06T20:47:38.060Z,30.60
2023-05-06T20:50:06.951Z,28.35
2023-05-06T20:52:35.140Z,25.92
2023-05-06T20:55:03.828Z,33.03
2023-05-06T20:57:32.011Z,33.22
2023-05-06T21:00:01.490Z,29.17
2023-05-06T21:02:35.825Z,24.95
2023-05-06T21:05:08.784Z,30.92
2023-05-06T21:07:37.344Z,29.63
2023-05-06T21:10:06.364Z,28.15
2023-05-06T21:12:35.196Z,36.17
2023-05-06T21:15:07.185Z,33.60
2023-05-06T21:17:36.654Z,26.65
2023-05-06T21:20:10.897Z,30.98
2023-05-06T21:22:39.054Z,30.38
2023-05-06T21:25:08.861Z,29.77
2023-05-06T21:27:37.343Z,30.02
2023-05-06T21:30:08.827Z,26.90
2023-05-06T21:32:37.098Z,25.85
2023-05-06T21:35:06.180Z,20.13
2023-05-06T21:37:35.607Z,25.48
2023-05-06T21:40:07.212Z,26.15
2023-05-06T21:42:35.385Z,21.38
2023-05-06T21:45:03.639Z,24.50
2023-05-06T21:47:34.446Z,24.15
2023-05-06T21:50:02.729Z,24.85
2023-05-06T21:52:31.469Z,25.25
2023-05-06T21:55:00.419Z,20.30
2023-05-06T21:57:28.587Z,27.88
2023-05-06T21:59:56.785Z,19.73
2023-05-06T22:02:26.963Z,23.90
2023-05-06T22:04:59.336Z,24.90
2023-05-06T22:07:28.616Z,22.10
2023-05-06T22:09:56.798Z,24.77
2023-05-06T22:12:24.936Z,27.73
2023-05-06T22:14:53.111Z,21.40
2023-05-06T22:17:22.401Z,27.40
2023-05-06T22:19:51.526Z,21.88
2023-05-06T22:22:21.908Z,23.92
2023-05-06T22:24:50.067Z,22.75
2023-05-06T22:27:18.235Z,25.88
2023-05-06T22:29:48.530Z,24.17
2023-05-06T22:32:16.665Z,24.25
2023-05-06T22:34:44.815Z,25.25
2023-05-06T22:37:12.983Z,22.95
2023-05-06T22:39:44.036Z,25.27
2023-05-06T22:42:12.188Z,23.58
2023-05-06T22:44:40.358Z,24.15
2023-05-06T22:47:11.095Z,20.52
2023-05-06T22:49:39.618Z,24.05
2023-05-06T22:52:07.932Z,18.50
2023-05-06T22:54:36.150Z,22.10
2023-05-06T22:57:08.741Z,16.48
2023-05-06T22:59:37.051Z,20.35
2023-05-06T23:02:05.350Z,18.45
2023-05-06T23:04:33.493Z,19.58
2023-05-06T23:07:01.629Z,17.63
2023-05-06T23:09:29.891Z,25.30
2023-05-06T23:11:58.047Z,22.33
2023-05-06T23:14:27.607Z,17.45
2023-05-06T23:16:55.815Z,15.40
2023-05-06T23:19:24.081Z,12.20
2023-05-06T23:21:52.266Z,12.85
2023-05-06T23:24:20.390Z,16.20
2023-05-06T23:26:48.759Z,10.40
2023-05-06T23:29:17.108Z,11.40
2023-05-06T23:31:46.627Z,12.00
2023-05-06T23:34:14.783Z,12.98
2023-05-06T23:36:42.962Z,13.35
2023-05-06T23:39:12.231Z,12.07
2023-05-06T23:41:40.649Z,11.07
2023-05-06T23:44:08.793Z,11.52
2023-05-06T23:46:37.134Z,10.63
2023-05-06T23:49:06.687Z,11.43
2023-05-06T23:51:35.039Z,10.63
2023-05-06T23:54:03.190Z,9.63
2023-05-06T23:56:31.367Z,10.00
2023-05-06T23:58:59.509Z,13.13
